Time;durP1;ratioP1;P1;durP2;ratioP2;P2;SDS_P1;SDS_P2;PMS_P1;PMS_P2;Temp;Humidity;BMP_temperature;BMP_pressure;BME280_temperature;BME280_humidity;BME280_pressure;Samples;Min_cycle;Max_cycle;Signal;HPM_P1;HPM_P2
2023/10/23 00:02:08;;;;;;;25.60;18.65;;;;;;;-145.63;64.03;39354.75;5045700;28;20025;-67
2023/10/23 00:04:34;;;;;;;22.67;18.35;;;;;;;-145.63;63.64;39356.72;5046344;28;20025;-67
2023/10/23 00:07:00;;;;;;;23.48;17.88;;;;;;;-145.63;63.17;39321.50;5045333;28;20243;-66
2023/10/23 00:09:25;;;;;;;21.30;16.00;;;;;;;-145.63;63.35;39362.59;5045333;28;20029;-68
2023/10/23 00:11:51;;;;;;;23.35;18.10;;;;;;;-145.63;62.83;39364.53;5046393;28;20044;-67
2023/10/23 00:14:17;;;;;;;21.45;16.20;;;;;;;-145.63;62.62;39358.66;5046772;28;20325;-67
2023/10/23 00:16:42;;;;;;;21.35;16.90;;;;;;;-145.63;63.50;39344.97;5046498;28;20336;-67
2023/10/23 00:19:08;;;;;;;22.42;17.42;;;;;;;-145.63;63.24;39374.31;5045388;28;20035;-67
2023/10/23 00:21:34;;;;;;;20.52;16.58;;;;;;;-145.63;62.91;39364.53;5046427;28;20033;-67
2023/10/23 00:23:59;;;;;;;20.42;16.35;;;;;;;-145.63;62.48;39380.19;5046319;28;20021;-68
2023/10/23 00:26:25;;;;;;;18.75;15.45;;;;;;;-145.63;62.14;39358.66;5046626;28;20379;-68
2023/10/23 00:28:51;;;;;;;18.40;15.00;;;;;;;-145.63;62.16;39366.50;5046145;28;20021;-67
2023/10/23 00:31:17;;;;;;;21.40;14.18;;;;;;;-145.63;62.68;39329.34;5046290;28;20018;-68
2023/10/23 00:33:43;;;;;;;13.27;11.45;;;;;;;-145.63;62.08;39372.34;5045986;28;20045;-68
2023/10/23 00:36:08;;;;;;;13.48;12.10;;;;;;;-145.63;62.29;39388.00;5046198;28;20032;-67
2023/10/23 00:38:34;;;;;;;15.57;11.73;;;;;;;-145.63;62.86;39368.44;5045972;28;20332;-68
2023/10/23 00:41:00;;;;;;;14.35;12.18;;;;;;;-145.63;63.20;39374.31;5046394;28;20032;-66
2023/10/23 00:43:25;;;;;;;14.68;12.13;;;;;;;-145.63;63.62;39368.44;5046026;28;20038;-67
2023/10/23 00:45:59;;;;;;;14.32;12.30;;;;;;;-145.63;63.38;39403.66;5046033;28;20041;-67
2023/10/23 00:48:26;;;;;;;15.18;12.52;;;;;;;-145.63;63.28;39356.72;5046002;28;20103;-67
2023/10/23 00:51:00;;;;;;;13.85;12.45;;;;;;;-145.63;63.08;39366.50;5045838;28;20377;-68
2023/10/23 00:53:31;;;;;;;14.60;13.05;;;;;;;-145.63;63.19;39358.66;5045290;28;20045;-68
2023/10/23 00:55:58;;;;;;;14.13;12.60;;;;;;;-145.63;63.23;39343.03;5044731;28;20064;-66
2023/10/23 00:58:27;;;;;;;17.13;13.20;;;;;;;-145.63;63.28;39358.66;5045076;28;20041;-66
2023/10/23 01:00:58;;;;;;;14.75;12.98;;;;;;;-145.63;63.30;39341.06;5044432;28;20075;-66
2023/10/23 01:03:25;;;;;;;18.50;13.95;;;;;;;-145.63;63.18;39399.75;5044790;28;20104;-66
2023/10/23 01:05:51;;;;;;;15.05;12.95;;;;;;;-145.63;62.82;39360.63;5042813;28;20097;-67
2023/10/23 01:08:17;;;;;;;15.90;13.90;;;;;;;-145.63;63.19;39348.88;5044213;28;20210;-65
2023/10/23 01:10:44;;;;;;;16.63;13.85;;;;;;;-145.63;63.20;39386.06;5044619;28;20233;-66
2023/10/23 01:13:10;;;;;;;14.95;13.07;;;;;;;-145.63;62.81;39360.63;5044480;28;20018;-67
2023/10/23 01:15:36;;;;;;;15.88;13.23;;;;;;;-145.63;62.56;39378.22;5044218;28;20088;-67
2023/10/23 01:18:05;;;;;;;15.98;13.88;;;;;;;-145.63;62.16;39356.72;5043344;28;20257;-66
2023/10/23 01:20:31;;;;;;;15.85;13.02;;;;;;;-145.63;62.29;39344.97;5044294;28;20029;-67
2023/10/23 01:22:58;;;;;;;14.63;12.80;;;;;;;-145.63;62.20;39364.53;5044266;28;20037;-66
2023/10/23 01:25:24;;;;;;;17.15;13.18;;;;;;;-145.63;61.98;39348.88;5044371;28;20085;-67
2023/10/23 01:27:50;;;;;;;14.23;12.48;;;;;;;-145.63;61.83;39362.59;5044176;28;20038;-67
2023/10/23 01:30:16;;;;;;;17.20;13.45;;;;;;;-145.63;62.37;39370.41;5044111;28;20040;-67
2023/10/23 01:32:42;;;;;;;15.80;13.45;;;;;;;-145.63;62.58;39370.41;5044054;28;20356;-67
2023/10/23 01:35:09;;;;;;;17.35;13.82;;;;;;;-145.63;62.84;39346.94;5044201;28;20037;-67
2023/10/23 01:37:35;;;;;;;16.70;13.60;;;;;;;-145.63;62.66;39368.44;5044035;28;20021;-67
2023/10/23 01:40:01;;;;;;;18.13;13.85;;;;;;;-145.63;62.26;39360.63;5044014;28;20293;-68
2023/10/23 01:42:28;;;;;;;15.98;13.30;;;;;;;-145.63;62.07;39360.63;5044081;28;20029;-67
2023/10/23 01:44:58;;;;;;;16.35;13.93;;;;;;;-145.63;62.28;39376.28;5044162;28;20036;-67
2023/10/23 01:47:25;;;;;;;16.52;14.45;;;;;;;-145.63;62.77;39360.63;5044057;28;20017;-67
2023/10/23 01:49:51;;;;;;;17.23;14.40;;;;;;;-145.63;62.14;39366.50;5043709;28;20029;-66
2023/10/23 01:52:18;;;;;;;16.20;13.73;;;;;;;-145.63;62.03;39352.81;4999165;28;1295381;-67
2023/10/23 01:54:43;;;;;;;17.90;14.55;;;;;;;-145.63;62.39;39388.00;5044612;28;20298;-67
2023/10/23 01:57:10;;;;;;;16.02;14.00;;;;;;;-145.63;62.25;39388.00;5045039;28;20036;-66
2023/10/23 01:59:36;;;;;;;20.15;16.40;;;;;;;-145.63;62.68;39335.19;5044769;28;20029;-67
2023/10/23 02:02:02;;;;;;;17.33;14.60;;;;;;;-145.63;62.64;39354.75;5045018;28;20053;-67
2023/10/23 02:04:28;;;;;;;17.75;15.13;;;;;;;-145.63;62.57;39352.81;5044608;28;20021;-67
2023/10/23 02:06:54;;;;;;;19.60;15.35;;;;;;;-145.63;62.63;39354.75;5044719;28;20147;-67
2023/10/23 02:09:20;;;;;;;19.58;15.32;;;;;;;-145.63;62.50;39372.34;5029724;28;20022;-68
2023/10/23 02:11:46;;;;;;;23.52;15.52;;;;;;;-145.63;62.28;39388.00;5026380;28;20124;-66
2023/10/23 02:14:12;;;;;;;18.60;15.30;;;;;;;-145.63;62.28;39360.63;5044692;28;20025;-67
2023/10/23 02:16:38;;;;;;;19.02;15.32;;;;;;;-145.63;62.54;39388.00;5044301;28;20083;-69
2023/10/23 02:19:03;;;;;;;18.58;15.48;;;;;;;-145.63;62.15;39380.19;5044191;28;20068;-67
2023/10/23 02:21:29;;;;;;;16.63;14.10;;;;;;;-145.63;62.14;39362.59;5043341;28;20021;-67
2023/10/23 02:23:55;;;;;;;16.23;14.52;;;;;;;-145.63;61.98;39391.91;5043888;28;20037;-68
2023/10/23 02:26:21;;;;;;;20.00;15.88;;;;;;;-145.63;62.39;39358.66;5044353;28;20044;-68
2023/10/23 02:28:47;;;;;;;16.55;14.25;;;;;;;-145.63;61.87;39368.44;5042843;28;20033;-67
2023/10/23 02:31:12;;;;;;;16.67;13.10;;;;;;;-145.63;61.75;39391.91;5044184;28;20028;-68
2023/10/23 02:33:38;;;;;;;16.35;14.10;;;;;;;-145.63;62.40;39358.66;5044012;28;20036;-67
2023/10/23 02:36:04;;;;;;;16.25;14.40;;;;;;;-145.63;61.94;39374.31;5044122;28;20043;-68
2023/10/23 02:38:30;;;;;;;16.08;13.88;;;;;;;-145.63;62.41;39362.59;5043889;28;20025;-67
2023/10/23 02:40:56;;;;;;;15.82;12.57;;;;;;;-145.63;61.94;39360.63;5043927;28;20143;-67
2023/10/23 02:43:22;;;;;;;14.27;12.15;;;;;;;-145.63;61.94;39364.53;5043812;28;20028;-66
2023/10/23 02:45:48;;;;;;;15.98;12.57;;;;;;;-145.63;61.61;39352.81;5043599;28;20105;-66
2023/10/23 02:48:16;;;;;;;12.70;11.40;;;;;;;-145.63;61.52;39360.63;5043966;28;20024;-66
2023/10/23 02:50:52;;;;;;;11.85;10.52;;;;;;;-145.63;61.15;39352.81;5043653;28;20092;-68
2023/10/23 02:53:17;;;;;;;15.10;11.65;;;;;;;-145.63;61.30;39358.66;5043918;28;20057;-66
2023/10/23 02:55:43;;;;;;;11.85;10.65;;;;;;;-145.63;61.56;39376.28;5043465;28;20037;-67
2023/10/23 02:58:08;;;;;;;10.70;9.63;;;;;;;-145.63;61.86;39391.91;5043392;28;20178;-67
2023/10/23 03:00:34;;;;;;;10.68;9.57;;;;;;;-145.63;61.87;39411.47;5042334;28;20044;-68
2023/10/23 03:03:00;;;;;;;11.13;10.02;;;;;;;-145.63;61.50;39368.44;5043439;28;20212;-67
2023/10/23 03:05:26;;;;;;;10.43;9.35;;;;;;;-145.63;61.96;39380.19;5043579;28;20324;-67
2023/10/23 03:07:51;;;;;;;9.65;8.65;;;;;;;-145.63;61.71;39360.63;5043124;28;20533;-66
2023/10/23 03:10:17;;;;;;;9.63;8.63;;;;;;;-145.63;61.65;39370.41;5043491;28;20030;-66
2023/10/23 03:12:43;;;;;;;10.40;8.30;;;;;;;-145.63;61.31;39360.63;5043187;28;20037;-68
2023/10/23 03:15:09;;;;;;;11.65;9.77;;;;;;;-145.63;61.51;39413.44;5043279;28;20022;-66
2023/10/23 03:17:34;;;;;;;10.32;8.95;;;;;;;-145.63;61.46;39368.44;5042990;28;20026;-67
2023/10/23 03:20:00;;;;;;;10.43;9.35;;;;;;;-145.63;61.27;39386.06;5042017;28;20029;-67
2023/10/23 03:22:26;;;;;;;9.63;8.57;;;;;;;-145.63;61.95;39374.31;5043412;28;20026;-67
2023/10/23 03:24:51;;;;;;;9.73;8.73;;;;;;;-145.63;61.92;39374.31;5042883;28;20037;-68
2023/10/23 03:27:17;;;;;;;9.85;8.85;;;;;;;-145.63;62.32;39372.34;5043253;28;20302;-68
2023/10/23 03:29:43;;;;;;;10.15;8.73;;;;;;;-145.63;62.13;39380.19;5042828;28;20214;-69
2023/10/23 03:32:09;;;;;;;9.15;8.25;;;;;;;-145.63;61.92;39368.44;5043319;28;20033;-67
2023/10/23 03:34:35;;;;;;;9.77;8.88;;;;;;;-145.63;62.40;39364.53;5042926;28;20025;-67
2023/10/23 03:37:01;;;;;;;9.50;8.48;;;;;;;-145.63;62.78;39344.97;5043099;28;20195;-67
2023/10/23 03:39:26;;;;;;;10.38;9.25;;;;;;;-145.63;62.78;39397.78;5043094;28;20308;-67
2023/10/23 03:41:52;;;;;;;10.45;9.25;;;;;;;-145.63;62.80;39370.41;5042481;28;20040;-68
2023/10/23 03:44:18;;;;;;;11.15;9.68;;;;;;;-145.63;62.59;39376.28;5041757;28;20048;-68
2023/10/23 03:46:44;;;;;;;10.50;9.10;;;;;;;-145.63;62.68;39362.59;5042835;28;20021;-69
2023/10/23 03:49:10;;;;;;;9.75;8.75;;;;;;;-145.63;62.31;39376.28;5043015;28;20486;-68
2023/10/23 03:51:35;;;;;;;9.88;8.85;;;;;;;-145.63;62.17;39376.28;5042696;28;20033;-67
2023/10/23 03:54:01;;;;;;;10.77;9.10;;;;;;;-145.63;62.14;39384.09;5041513;28;20037;-66
2023/10/23 03:56:27;;;;;;;9.10;8.10;;;;;;;-145.63;62.02;39352.81;5042961;28;20037;-67
2023/10/23 03:58:52;;;;;;;9.30;8.15;;;;;;;-145.63;61.90;39411.47;5042726;28;20017;-67
2023/10/23 04:01:18;;;;;;;11.18;8.18;;;;;;;-145.63;62.70;39366.50;5042815;28;20032;-67
2023/10/23 04:03:44;;;;;;;8.05;7.25;;;;;;;-145.63;62.31;39368.44;5042383;28;20253;-67
2023/10/23 04:06:09;;;;;;;11.05;8.48;;;;;;;-145.63;62.04;39388.00;5042674;28;20029;-67
2023/10/23 04:08:35;;;;;;;9.45;7.57;;;;;;;-145.63;61.74;39393.88;5042535;28;20047;-67
2023/10/23 04:11:01;;;;;;;11.25;7.55;;;;;;;-145.63;61.85;39374.31;5042674;28;20076;-67
2023/10/23 04:13:26;;;;;;;10.27;8.07;;;;;;;-145.63;62.35;39372.34;5042810;28;20029;-66
2023/10/23 04:15:57;;;;;;;8.75;7.75;;;;;;;-145.63;62.27;39397.78;5042398;28;20036;-68
2023/10/23 04:18:26;;;;;;;10.43;8.05;;;;;;;-145.63;62.44;39393.88;5042694;28;20045;-67
2023/10/23 04:21:05;;;;;;;11.90;7.70;;;;;;;-145.63;62.35;39397.78;5042443;28;20037;-68
2023/10/23 04:23:32;;;;;;;9.38;7.55;;;;;;;-145.63;61.89;39358.66;5042780;28;20022;-69
2023/10/23 04:25:58;;;;;;;9.50;7.65;;;;;;;-145.63;62.02;39388.00;5022901;28;20038;-68
2023/10/23 04:28:24;;;;;;;9.60;7.10;;;;;;;-145.63;62.52;39401.69;5037867;28;20214;-67
2023/10/23 04:30:49;;;;;;;10.55;7.65;;;;;;;-145.63;63.00;39397.78;5042220;28;20049;-67
2023/10/23 04:33:22;;;;;;;10.75;7.90;;;;;;;-145.63;63.14;39376.28;5042503;28;20092;-67
2023/10/23 04:35:50;;;;;;;9.60;8.40;;;;;;;-145.63;63.58;39438.84;5042053;28;20028;-67
2023/10/23 04:38:15;;;;;;;11.48;8.60;;;;;;;-145.63;63.43;39380.19;5042260;28;20037;-67
2023/10/23 04:40:44;;;;;;;11.93;8.32;;;;;;;-145.63;62.75;39397.78;5042035;28;20032;-67
2023/10/23 04:43:13;;;;;;;11.25;9.23;;;;;;;-145.63;63.12;39380.19;5042840;28;20112;-67
2023/10/23 04:45:39;;;;;;;15.02;10.63;;;;;;;-145.63;63.02;39384.09;5045587;28;20033;-66
2023/10/23 04:48:06;;;;;;;13.88;9.85;;;;;;;-145.63;62.85;39399.75;5044735;28;20306;-66
2023/10/23 04:50:39;;;;;;;12.18;9.82;;;;;;;-145.63;62.84;39403.66;5045864;28;20037;-68
2023/10/23 04:53:06;;;;;;;17.90;11.40;;;;;;;-145.63;63.30;39395.84;5041125;28;20291;-67
2023/10/23 04:55:33;;;;;;;16.92;11.95;;;;;;;-145.63;63.81;39372.34;5041566;28;20041;-67
2023/10/23 04:58:00;;;;;;;16.33;12.02;;;;;;;-145.63;63.82;39370.41;5045669;28;20103;-67
2023/10/23 05:00:26;;;;;;;19.23;13.05;;;;;;;-145.63;63.58;39386.06;5045885;28;20030;-68
2023/10/23 05:02:52;;;;;;;18.80;13.43;;;;;;;-145.63;63.20;39288.25;5045743;28;20029;-68
2023/10/23 05:05:17;;;;;;;16.60;12.73;;;;;;;-145.63;63.43;39370.41;5045822;28;20021;-68
2023/10/23 05:07:43;;;;;;;17.15;12.38;;;;;;;-145.63;62.87;39370.41;5045173;28;20237;-69
2023/10/23 05:10:09;;;;;;;16.95;12.00;;;;;;;-145.63;62.97;39407.56;5045473;28;20079;-68
2023/10/23 05:12:35;;;;;;;18.27;12.85;;;;;;;-145.63;62.78;39405.59;5045235;28;20030;-68
2023/10/23 05:15:05;;;;;;;19.10;13.85;;;;;;;-145.63;62.99;39386.06;5045210;28;20040;-68
2023/10/23 05:17:31;;;;;;;16.83;12.48;;;;;;;-145.63;63.50;39376.28;5045214;28;20045;-67
2023/10/23 05:19:57;;;;;;;23.33;13.82;;;;;;;-145.63;63.82;39388.00;5045417;28;20269;-68
2023/10/23 05:22:23;;;;;;;16.15;12.75;;;;;;;-145.63;63.74;39386.06;5045545;28;20036;-67
2023/10/23 05:24:49;;;;;;;16.75;12.73;;;;;;;-145.63;63.80;39403.66;5045022;28;20025;-68
2023/10/23 05:27:17;;;;;;;23.58;13.85;;;;;;;-145.63;62.99;39413.44;5045255;28;20029;-68
2023/10/23 05:29:43;;;;;;;20.45;13.68;;;;;;;-145.63;63.41;39407.56;5045237;28;20290;-68
2023/10/23 05:32:09;;;;;;;24.25;13.93;;;;;;;-145.63;63.91;39368.44;5045235;28;20083;-67
2023/10/23 05:34:35;;;;;;;21.42;13.52;;;;;;;-145.63;63.49;39378.22;5044978;28;20025;-67
2023/10/23 05:37:01;;;;;;;25.23;14.00;;;;;;;-145.63;63.57;39407.56;5045192;28;20029;-67
2023/10/23 05:39:27;;;;;;;29.77;15.38;;;;;;;-145.63;63.54;39374.31;5044959;28;20033;-67
2023/10/23 05:41:54;;;;;;;28.23;15.13;;;;;;;-145.63;63.51;39393.88;5044518;28;20037;-67
2023/10/23 05:44:19;;;;;;;18.20;12.82;;;;;;;-145.63;63.47;39388.00;5045240;28;20053;-67
2023/10/23 05:46:45;;;;;;;22.60;15.20;;;;;;;-145.63;63.17;39391.91;5044785;28;20347;-67
2023/10/23 05:49:11;;;;;;;21.60;14.00;;;;;;;-145.63;63.03;39397.78;5044759;28;20029;-67
2023/10/23 05:51:37;;;;;;;28.52;14.82;;;;;;;-145.63;64.00;39393.88;5044486;28;20037;-67
2023/10/23 05:54:03;;;;;;;27.55;14.93;;;;;;;-145.63;64.12;39421.25;5044386;28;20345;-68
2023/10/23 05:56:29;;;;;;;30.60;16.45;;;;;;;-145.63;63.76;39401.69;5043593;28;20025;-66
2023/10/23 05:58:55;;;;;;;29.80;15.32;;;;;;;-145.63;63.89;39399.75;5044699;28;20048;-66
2023/10/23 06:01:21;;;;;;;24.77;14.95;;;;;;;-145.63;63.68;39376.28;5044387;28;20029;-67
2023/10/23 06:03:46;;;;;;;20.42;14.52;;;;;;;-145.63;63.19;39397.78;5044439;28;20047;-67
2023/10/23 06:06:12;;;;;;;22.50;15.20;;;;;;;-145.63;63.29;39413.44;5044680;28;20025;-66
2023/10/23 06:08:39;;;;;;;30.02;15.45;;;;;;;-145.63;63.19;39395.84;5044266;28;20025;-66
2023/10/23 06:11:11;;;;;;;25.15;15.10;;;;;;;-145.63;63.24;39376.28;5044429;28;20026;-66
2023/10/23 06:13:37;;;;;;;21.42;14.20;;;;;;;-145.63;62.99;39415.38;5044209;28;20325;-66
2023/10/23 06:16:07;;;;;;;25.55;14.38;;;;;;;-145.63;62.91;39372.34;5044214;28;20037;-67
2023/10/23 06:18:35;;;;;;;23.50;14.73;;;;;;;-145.63;63.01;39356.72;5044334;28;20067;-67
2023/10/23 06:21:05;;;;;;;33.17;16.70;;;;;;;-145.63;62.66;39399.75;5044000;28;20083;-68
2023/10/23 06:23:39;;;;;;;25.17;15.00;;;;;;;-145.63;62.98;39391.91;5044066;28;20194;-68
2023/10/23 06:26:07;;;;;;;33.80;17.83;;;;;;;-145.63;62.77;39386.06;5044101;28;20029;-66
2023/10/23 06:28:33;;;;;;;33.75;18.45;;;;;;;-145.63;63.28;39397.78;5043479;28;20087;-66
2023/10/23 06:31:06;;;;;;;30.45;16.88;;;;;;;-145.63;63.33;39368.44;5043796;28;20021;-67
2023/10/23 06:33:32;;;;;;;38.33;18.17;;;;;;;-145.63;63.26;39409.53;5043887;28;20040;-67
2023/10/23 06:35:59;;;;;;;29.63;16.50;;;;;;;-145.63;63.41;39397.78;5043823;28;20025;-66
2023/10/23 06:38:25;;;;;;;33.65;16.85;;;;;;;-145.63;63.68;39388.00;5044076;28;20060;-67
2023/10/23 06:40:50;;;;;;;41.85;19.25;;;;;;;-145.63;63.68;39376.28;5043724;28;20052;-66
2023/10/23 06:43:16;;;;;;;35.45;18.67;;;;;;;-145.63;63.57;39407.56;5043598;28;20034;-67
2023/10/23 06:45:43;;;;;;;31.52;18.00;;;;;;;-145.63;63.44;39403.66;5043661;28;20073;-67
2023/10/23 06:48:08;;;;;;;29.75;16.42;;;;;;;-145.63;63.35;39411.47;5044009;28;20025;-68
2023/10/23 06:50:34;;;;;;;34.03;18.38;;;;;;;-145.63;63.25;39362.59;5043707;28;20052;-68
2023/10/23 06:53:00;;;;;;;26.67;15.80;;;;;;;-145.63;63.77;39384.09;5043369;28;20330;-70
2023/10/23 06:55:27;;;;;;;26.75;16.25;;;;;;;-145.63;63.16;39431.03;5042447;28;20029;-68
2023/10/23 06:57:56;;;;;;;28.67;15.90;;;;;;;-145.63;63.33;39364.53;5042413;28;20100;-69
2023/10/23 07:00:21;;;;;;;27.40;14.88;;;;;;;-145.63;63.64;39536.66;5043385;28;20036;-69
2023/10/23 07:02:50;;;;;;;24.35;15.20;;;;;;;-145.63;63.35;39433.00;5043377;28;20035;-67
2023/10/23 07:05:16;;;;;;;27.60;15.80;;;;;;;-145.63;63.00;39434.94;5043627;28;20032;-68
2023/10/23 07:07:42;;;;;;;26.58;15.52;;;;;;;-145.63;63.11;39405.59;5041310;28;20033;-69
2023/10/23 07:10:08;;;;;;;22.48;14.93;;;;;;;-145.63;62.97;39389.97;5023551;28;20029;-68
2023/10/23 07:12:35;;;;;;;22.55;14.25;;;;;;;-145.63;62.50;39370.41;5030464;28;20057;-68
2023/10/23 07:15:01;;;;;;;26.75;14.55;;;;;;;-145.63;63.18;39376.28;5042116;28;20237;-69
2023/10/23 07:17:30;;;;;;;32.58;15.85;;;;;;;-145.63;63.52;39370.41;5043311;28;20025;-67
2023/10/23 07:19:55;;;;;;;24.42;14.20;;;;;;;-145.63;63.45;39397.78;5042320;28;20124;-68
2023/10/23 07:22:21;;;;;;;20.48;13.65;;;;;;;-145.63;63.41;39417.34;5042827;28;20029;-67
2023/10/23 07:24:47;;;;;;;17.10;12.18;;;;;;;-145.63;63.62;39415.38;5041646;28;20083;-66
2023/10/23 07:27:15;;;;;;;23.27;15.23;;;;;;;-145.63;63.39;39401.69;5043041;28;20025;-67
2023/10/23 07:29:44;;;;;;;22.15;13.60;;;;;;;-145.63;63.31;39384.09;5042896;28;20248;-67
2023/10/23 07:32:10;;;;;;;25.50;14.98;;;;;;;-145.63;63.33;39364.53;5043090;28;20078;-67
2023/10/23 07:34:35;;;;;;;22.67;13.23;;;;;;;-145.63;63.14;39393.88;5042789;28;20052;-67
2023/10/23 07:37:03;;;;;;;19.63;11.95;;;;;;;-145.63;63.36;39399.75;5042972;28;20032;-67
2023/10/23 07:39:28;;;;;;;21.85;13.98;;;;;;;-145.63;62.35;39376.28;5041313;28;20088;-69
2023/10/23 07:41:54;;;;;;;23.73;13.95;;;;;;;-145.63;62.89;39391.91;5041509;28;20036;-68
2023/10/23 07:44:20;;;;;;;24.10;13.73;;;;;;;-145.63;63.05;39391.91;5042950;28;20301;-68
2023/10/23 07:46:46;;;;;;;21.15;12.57;;;;;;;-145.63;63.16;39382.13;5042926;28;20030;-67
2023/10/23 07:49:12;;;;;;;22.92;14.60;;;;;;;-145.63;63.08;39391.91;5042580;28;20030;-66
2023/10/23 07:51:38;;;;;;;19.13;13.00;;;;;;;-145.63;63.25;39388.00;5042373;28;20210;-69
2023/10/23 07:54:04;;;;;;;25.17;14.63;;;;;;;-145.63;63.08;39370.41;5042610;28;20049;-67
2023/10/23 07:56:30;;;;;;;21.00;12.90;;;;;;;-145.63;63.29;39411.47;5043006;28;20081;-67
2023/10/23 07:58:55;;;;;;;22.40;14.02;;;;;;;-145.63;63.48;39405.59;5042634;28;20421;-66
2023/10/23 08:01:22;;;;;;;23.65;14.43;;;;;;;-145.63;63.68;39409.53;5042457;28;20025;-68
2023/10/23 08:03:47;;;;;;;25.02;14.95;;;;;;;-145.63;63.79;39380.19;5042123;28;20075;-67
2023/10/23 08:06:15;;;;;;;26.73;16.55;;;;;;;-145.63;64.07;39407.56;5042627;28;20044;-69
2023/10/23 08:08:41;;;;;;;23.00;15.20;;;;;;;-145.63;63.50;39372.34;5042605;28;20053;-68
2023/10/23 08:11:09;;;;;;;22.60;16.35;;;;;;;-145.63;63.75;39378.22;5042819;28;20262;-66
2023/10/23 08:13:35;;;;;;;25.13;16.27;;;;;;;-145.63;63.64;39380.19;5042799;28;20072;-69
2023/10/23 08:16:03;;;;;;;24.23;16.08;;;;;;;-145.63;63.62;39372.34;5042475;28;20100;-70
2023/10/23 08:18:29;;;;;;;22.48;16.25;;;;;;;-145.63;63.92;39388.00;5038582;28;20195;-67
2023/10/23 08:20:55;;;;;;;19.75;14.70;;;;;;;-145.63;64.20;39374.31;5045519;28;20037;-66
2023/10/23 08:23:21;;;;;;;23.65;16.63;;;;;;;-145.63;64.28;39399.75;5045523;28;20056;-68
2023/10/23 08:25:47;;;;;;;24.88;17.27;;;;;;;-145.63;64.29;39415.38;5045466;28;20108;-67
2023/10/23 08:28:12;;;;;;;24.60;16.88;;;;;;;-145.63;63.88;39372.34;5045336;28;20041;-66
2023/10/23 08:30:38;;;;;;;25.30;17.95;;;;;;;-145.63;64.37;39395.84;5045581;28;20036;-66
2023/10/23 08:33:05;;;;;;;28.65;19.67;;;;;;;-145.63;63.59;39337.16;5044591;28;20033;-66
2023/10/23 08:35:31;;;;;;;25.60;17.40;;;;;;;-145.63;63.73;39249.16;5045942;28;20025;-66
2023/10/23 08:37:57;;;;;;;23.33;17.20;;;;;;;-145.63;63.97;39374.31;5029370;28;20028;-66
2023/10/23 08:40:23;;;;;;;23.05;16.77;;;;;;;-145.63;63.60;39356.72;5045965;28;20356;-66
2023/10/23 08:42:49;;;;;;;23.05;17.20;;;;;;;-145.63;63.87;39382.13;5045967;28;20021;-67
2023/10/23 08:45:16;;;;;;;26.67;17.52;;;;;;;-145.63;63.61;39368.44;5045668;28;20158;-69
2023/10/23 08:47:42;;;;;;;24.48;17.75;;;;;;;-145.63;63.36;39395.84;5045695;28;20035;-69
2023/10/23 08:50:08;;;;;;;22.23;16.15;;;;;;;-145.63;63.48;39395.84;5045881;28;20032;-70
2023/10/23 08:52:38;;;;;;;24.83;18.35;;;;;;;-145.63;63.28;39384.09;5045200;28;20049;-69
2023/10/23 08:55:07;;;;;;;24.05;16.88;;;;;;;-145.63;63.12;39378.22;5045649;28;20041;-69
2023/10/23 08:57:36;;;;;;;20.75;15.82;;;;;;;-145.63;63.49;39395.84;5045261;28;20036;-69
2023/10/23 09:00:01;;;;;;;24.13;16.58;;;;;;;-145.63;63.72;39364.53;5045667;28;20071;-71
2023/10/23 09:02:31;;;;;;;28.13;19.13;;;;;;;-145.63;63.78;39386.06;5046133;28;20032;-71
2023/10/23 09:04:57;;;;;;;21.88;16.27;;;;;;;-145.63;63.82;39378.22;5045560;28;20017;-70
2023/10/23 09:07:22;;;;;;;22.13;16.90;;;;;;;-145.63;63.84;39389.97;5045563;28;20017;-69
2023/10/23 09:09:48;;;;;;;22.42;16.45;;;;;;;-145.63;63.60;39391.91;5044806;28;20033;-68
2023/10/23 09:12:33;;;;;;;22.92;17.02;;;;;;;-145.63;63.70;39391.91;5045259;28;20297;-69
2023/10/23 09:15:17;;;;;;;22.00;16.08;;;;;;;-145.63;63.73;39405.59;5045167;28;20036;-70
2023/10/23 09:17:44;;;;;;;20.90;15.75;;;;;;;-145.63;63.51;39391.91;5044896;28;20036;-71
2023/10/23 09:20:19;;;;;;;19.92;15.35;;;;;;;-145.63;63.90;39389.97;5045222;28;20022;-69
2023/10/23 09:22:48;;;;;;;23.75;15.95;;;;;;;-145.63;63.48;39393.88;5044991;28;20033;-71
2023/10/23 09:25:16;;;;;;;25.08;17.95;;;;;;;-145.63;63.47;39378.22;5044669;28;20021;-69
2023/10/23 09:27:43;;;;;;;19.15;15.10;;;;;;;-145.63;63.72;39380.19;5044728;28;20375;-69
2023/10/23 09:30:09;;;;;;;22.17;16.15;;;;;;;-145.63;63.49;39393.88;5044611;28;20324;-68
2023/10/23 09:32:36;;;;;;;22.60;17.40;;;;;;;-145.63;63.96;39415.38;5043843;28;20305;-68
2023/10/23 09:35:06;;;;;;;19.50;17.08;;;;;;;-145.63;63.64;39395.84;5044830;28;20040;-68
2023/10/23 09:37:32;;;;;;;18.50;16.05;;;;;;;-145.63;63.76;39395.84;5040665;28;20081;-68
2023/10/23 09:40:08;;;;;;;24.45;17.98;;;;;;;-145.63;63.59;39382.13;5044499;28;20349;-70
2023/10/23 09:42:35;;;;;;;24.00;18.27;;;;;;;-145.63;63.62;39393.88;5044928;28;20028;-67
2023/10/23 09:45:01;;;;;;;23.30;18.02;;;;;;;-145.63;63.77;39366.50;5044933;28;20021;-67
2023/10/23 09:47:32;;;;;;;24.98;19.83;;;;;;;-145.63;63.33;39440.81;5044941;28;20025;-66
2023/10/23 09:49:59;;;;;;;24.35;18.65;;;;;;;-145.63;63.62;39376.28;5044416;28;20333;-66
2023/10/23 09:52:27;;;;;;;24.00;19.33;;;;;;;-145.63;63.43;39386.06;5044413;28;20321;-65
2023/10/23 09:55:05;;;;;;;22.38;18.88;;;;;;;-145.63;63.27;39384.09;5044047;28;20025;-68
2023/10/23 09:57:38;;;;;;;24.40;19.80;;;;;;;-145.63;63.64;39438.84;5032050;28;20025;-68
2023/10/23 10:00:14;;;;;;;23.85;19.73;;;;;;;-145.63;63.55;39378.22;5044274;28;20025;-68
2023/10/23 10:02:47;;;;;;;24.52;19.98;;;;;;;-145.63;63.80;39384.09;5043910;28;20038;-68
2023/10/23 10:05:21;;;;;;;28.20;21.52;;;;;;;-145.63;63.76;39397.78;5044113;28;20025;-68
2023/10/23 10:08:03;;;;;;;26.63;20.83;;;;;;;-145.63;63.64;39415.38;5041585;28;20204;-68
2023/10/23 10:10:34;;;;;;;;;;;;;;;-145.63;64.00;39413.44;5025005;28;20244;-67
2023/10/23 10:13:02;;;;;;;25.83;20.20;;;;;;;-145.63;63.80;39415.38;5043504;28;19945;-66
2023/10/23 10:15:28;;;;;;;22.05;18.75;;;;;;;-145.63;63.72;39386.06;5043615;28;20088;-66
2023/10/23 10:17:53;;;;;;;24.10;19.70;;;;;;;-145.63;63.84;39409.53;5043807;28;20037;-67
2023/10/23 10:20:21;;;;;;;25.95;21.02;;;;;;;-145.63;63.50;39415.38;5043544;28;20045;-66
2023/10/23 10:23:01;;;;;;;25.48;19.80;;;;;;;-145.63;63.50;39380.19;5041510;28;20045;-67
2023/10/23 10:25:28;;;;;;;26.85;21.67;;;;;;;-145.63;63.68;39384.09;5040182;28;20025;-66
2023/10/23 10:27:58;;;;;;;27.48;20.77;;;;;;;-145.63;63.24;39395.84;5039249;28;20037;-65
2023/10/23 10:30:36;;;;;;;26.02;20.63;;;;;;;-145.63;63.49;39423.22;5043074;28;20055;-66
2023/10/23 10:33:02;;;;;;;25.77;20.65;;;;;;;-145.63;63.88;39384.09;5024538;28;20028;-66
2023/10/23 10:35:28;;;;;;;21.17;18.02;;;;;;;-145.63;63.96;39395.84;5042558;28;20229;-67
2023/10/23 10:37:59;;;;;;;27.35;20.65;;;;;;;-145.63;63.59;39415.38;5043183;28;20040;-67
2023/10/23 10:40:25;;;;;;;24.17;18.88;;;;;;;-145.63;63.72;39380.19;5042404;28;20331;-67
2023/10/23 10:42:50;;;;;;;24.00;19.90;;;;;;;-145.63;63.85;39388.00;5043062;28;20056;-66
2023/10/23 10:45:17;;;;;;;23.63;20.08;;;;;;;-145.63;63.84;39393.88;5043714;28;20025;-67
2023/10/23 10:47:53;;;;;;;24.58;19.88;;;;;;;-145.63;64.04;39391.91;5043422;28;20132;-66
2023/10/23 10:50:33;;;;;;;22.00;18.08;;;;;;;-145.63;63.74;39380.19;5042993;28;20100;-66
2023/10/23 10:53:04;;;;;;;21.92;18.48;;;;;;;-145.63;63.59;39388.00;5025619;28;20099;-65
2023/10/23 10:55:30;;;;;;;23.53;19.60;;;;;;;-145.63;64.05;39380.19;5043292;28;20039;-67
2023/10/23 10:57:57;;;;;;;20.92;17.90;;;;;;;-145.63;63.97;39391.91;5043092;28;20419;-67
2023/10/23 11:00:23;;;;;;;23.48;18.17;;;;;;;-145.63;64.18;39382.13;5042263;28;20073;-66
2023/10/23 11:02:49;;;;;;;22.35;18.33;;;;;;;-145.63;64.46;39376.28;5043043;28;20096;-64
2023/10/23 11:05:15;;;;;;;22.58;17.98;;;;;;;-145.63;64.48;39384.09;5041930;28;20030;-67